KSHR

Sheridan County Airport

Sheridan, Wyoming, USA
KSHR 151137Z 1512/1612 32007KT P6SM SKC FM151500 32015KT P6SM FEW150 FM151900 32013G21KT P6SM SCT150 FM160000 VRB06KT P6SM SCT120 FM160700 VRB04KT P6SM BKN100
Issued Valid From Valid To
Nov-15 @ 11:37 UTC
(2 hours ago)
Nov-15 @ 12:00 UTC
(an hour ago)
Nov-16 @ 12:00 UTC
(in 23 hours)
Nov-15 @ 12:00 to Nov-15 @ 15:00
KSHR 151137Z 1512/1612 32007KT P6SM SKC
Wind Visibility Clouds
320° at 7 knots Greater than 6 miles
  • Clear skies
From Nov-15 @ 15:00 to Nov-15 @ 19:00
FM151500 32015KT P6SM FEW150
Wind Visibility Clouds
320° at 15 knots Greater than 6 miles
  • Few at 15,000' AGL
From Nov-15 @ 19:00 to Nov-16 @ 00:00
FM151900 32013G21KT P6SM SCT150
Wind Visibility Clouds
320° at 13 knots
 Gusting to 21 knots
Greater than 6 miles
  • Scattered at 15,000' AGL
From Nov-16 @ 00:00 to Nov-16 @ 07:00
FM160000 VRB06KT P6SM SCT120
Wind Visibility Clouds
Variable at 6 knots Greater than 6 miles
  • Scattered at 12,000' AGL
From Nov-16 @ 07:00 to Nov-16 @ 12:00
FM160700 VRB04KT P6SM BKN100
Wind Visibility Clouds
Variable at 4 knots Greater than 6 miles
  • Broken at 10,000' AGL
KSHR 151137Z 1512/1612 32007KT P6SM SKC FM151500 32015KT P6SM FEW150 FM151900 32013G21KT P6SM SCT150 FM160000 VRB06KT P6SM SCT120 FM160700 VRB04KT P6SM BKN100
Issued Nov-15 @ 11:37 UTC
(2 hours ago)
Valid From Nov-15 @ 12:00 UTC
(an hour ago)
Valid To Nov-16 @ 12:00 UTC
(in 23 hours)
Nov-15 @ 12:00 - Nov-15 @ 15:00
Wind Visibility
320° at 7 knots Greater than 6 miles
Clouds
  • Clear skies
From Nov-15 @ 15:00 - Nov-15 @ 19:00
Wind Visibility
320° at 15 knots Greater than 6 miles
Clouds
  • Few at 15,000' AGL
From Nov-15 @ 19:00 - Nov-16 @ 00:00
Wind Visibility
320° at 13 knots
 Gusting to 21 knots
Greater than 6 miles
Clouds
  • Scattered at 15,000' AGL
From Nov-16 @ 00:00 - Nov-16 @ 07:00
Wind Visibility
Variable at 6 knots Greater than 6 miles
Clouds
  • Scattered at 12,000' AGL
From Nov-16 @ 07:00 - Nov-16 @ 12:00
Wind Visibility
Variable at 4 knots Greater than 6 miles
Clouds
  • Broken at 10,000' AGL